Terminal Aerodrome Forecast
Issued by NWS Birmingham, AL

Home | Current Version | Previous Version | Text Only | Print | Product List | Glossary On
Versions: 1 2 3 4 5 6 7 8 9 10 11 12 13 14
000
FTUS44 KBMX 012300
TAFBHM
TAF
KBHM 012335Z 0200/0224 18013KT P6SM VCSH OVC007
     FM020130 21009KT 5SM -RA BR OVC015
     FM020200 19012G20KT 2SM TSRA SCT007CB BKN015 OVC025
     FM020400 25013G19KT 4SM -DZ BR OVC007
     FM021000 31012G19KT P6SM OVC015
     FM021900 33009G15KT P6SM SCT250=

USA.gov is the U.S. government's official web portal to all federal, state and local government web resources and services.